sensor_id;sensor_type;location;lat;lon;timestamp;P1;durP1;ratioP1;P2;durP2;ratioP2
10945;SDS011;5525;42.648;23.368;2024-01-15T00:00:11;21.15;;;11.30;;
10945;SDS011;5525;42.648;23.368;2024-01-15T00:02:38;26.52;;;11.80;;
10945;SDS011;5525;42.648;23.368;2024-01-15T00:05:07;21.77;;;10.38;;
10945;SDS011;5525;42.648;23.368;2024-01-15T00:07:34;20.27;;;11.40;;
10945;SDS011;5525;42.648;23.368;2024-01-15T00:10:01;23.90;;;11.43;;
10945;SDS011;5525;42.648;23.368;2024-01-15T00:12:28;21.90;;;11.27;;
10945;SDS011;5525;42.648;23.368;2024-01-15T00:14:55;19.63;;;9.55;;
10945;SDS011;5525;42.648;23.368;2024-01-15T00:17:21;19.50;;;9.65;;
10945;SDS011;5525;42.648;23.368;2024-01-15T00:19:48;18.10;;;9.85;;
10945;SDS011;5525;42.648;23.368;2024-01-15T00:22:17;19.67;;;8.63;;
10945;SDS011;5525;42.648;23.368;2024-01-15T00:24:44;19.25;;;9.18;;
10945;SDS011;5525;42.648;23.368;2024-01-15T00:27:11;20.95;;;10.55;;
10945;SDS011;5525;42.648;23.368;2024-01-15T00:29:38;17.73;;;9.40;;
10945;SDS011;5525;42.648;23.368;2024-01-15T00:32:05;26.00;;;11.73;;
10945;SDS011;5525;42.648;23.368;2024-01-15T00:34:32;21.90;;;11.07;;
10945;SDS011;5525;42.648;23.368;2024-01-15T00:36:59;28.23;;;13.10;;
10945;SDS011;5525;42.648;23.368;2024-01-15T00:39:27;23.73;;;11.95;;
10945;SDS011;5525;42.648;23.368;2024-01-15T00:41:54;25.95;;;12.82;;
10945;SDS011;5525;42.648;23.368;2024-01-15T00:44:21;21.80;;;11.43;;
10945;SDS011;5525;42.648;23.368;2024-01-15T00:46:48;19.08;;;10.85;;
10945;SDS011;5525;42.648;23.368;2024-01-15T00:49:15;18.30;;;9.50;;
10945;SDS011;5525;42.648;23.368;2024-01-15T00:51:41;19.35;;;10.60;;
10945;SDS011;5525;42.648;23.368;2024-01-15T00:54:08;23.38;;;10.98;;
10945;SDS011;5525;42.648;23.368;2024-01-15T00:56:36;24.48;;;11.63;;
10945;SDS011;5525;42.648;23.368;2024-01-15T00:59:03;20.27;;;9.88;;
10945;SDS011;5525;42.648;23.368;2024-01-15T01:01:30;19.75;;;10.35;;
10945;SDS011;5525;42.648;23.368;2024-01-15T01:03:57;24.42;;;11.55;;
10945;SDS011;5525;42.648;23.368;2024-01-15T01:06:24;19.45;;;9.55;;
10945;SDS011;5525;42.648;23.368;2024-01-15T01:08:51;25.15;;;12.32;;
10945;SDS011;5525;42.648;23.368;2024-01-15T01:11:18;25.35;;;11.30;;
10945;SDS011;5525;42.648;23.368;2024-01-15T01:13:46;21.80;;;10.77;;
10945;SDS011;5525;42.648;23.368;2024-01-15T01:16:17;21.73;;;10.00;;
10945;SDS011;5525;42.648;23.368;2024-01-15T01:18:43;24.23;;;11.38;;
10945;SDS011;5525;42.648;23.368;2024-01-15T01:21:10;24.48;;;12.77;;
10945;SDS011;5525;42.648;23.368;2024-01-15T01:23:37;24.38;;;11.57;;
10945;SDS011;5525;42.648;23.368;2024-01-15T01:26:03;24.30;;;11.57;;
10945;SDS011;5525;42.648;23.368;2024-01-15T01:28:30;23.08;;;12.45;;
10945;SDS011;5525;42.648;23.368;2024-01-15T01:30:59;22.08;;;12.80;;
10945;SDS011;5525;42.648;23.368;2024-01-15T01:33:26;26.67;;;13.07;;
10945;SDS011;5525;42.648;23.368;2024-01-15T01:35:52;21.13;;;12.10;;
10945;SDS011;5525;42.648;23.368;2024-01-15T01:38:19;27.58;;;14.05;;
10945;SDS011;5525;42.648;23.368;2024-01-15T01:40:46;28.33;;;14.00;;
10945;SDS011;5525;42.648;23.368;2024-01-15T01:43:12;25.30;;;12.75;;
10945;SDS011;5525;42.648;23.368;2024-01-15T01:45:39;29.10;;;13.57;;
10945;SDS011;5525;42.648;23.368;2024-01-15T01:48:07;24.25;;;12.48;;
10945;SDS011;5525;42.648;23.368;2024-01-15T01:50:34;21.33;;;10.82;;
10945;SDS011;5525;42.648;23.368;2024-01-15T01:53:01;23.67;;;12.20;;
10945;SDS011;5525;42.648;23.368;2024-01-15T01:55:30;25.25;;;13.85;;
10945;SDS011;5525;42.648;23.368;2024-01-15T01:57:58;24.40;;;13.65;;
10945;SDS011;5525;42.648;23.368;2024-01-15T02:00:26;27.23;;;13.60;;
10945;SDS011;5525;42.648;23.368;2024-01-15T02:02:54;25.80;;;13.45;;
10945;SDS011;5525;42.648;23.368;2024-01-15T02:05:22;23.05;;;13.02;;
10945;SDS011;5525;42.648;23.368;2024-01-15T02:07:49;26.98;;;13.40;;
10945;SDS011;5525;42.648;23.368;2024-01-15T02:10:16;26.35;;;13.77;;
10945;SDS011;5525;42.648;23.368;2024-01-15T02:12:43;22.00;;;11.88;;
10945;SDS011;5525;42.648;23.368;2024-01-15T02:15:10;27.00;;;13.73;;
10945;SDS011;5525;42.648;23.368;2024-01-15T02:20:27;20.35;;;10.93;;
10945;SDS011;5525;42.648;23.368;2024-01-15T02:22:54;23.88;;;11.52;;
10945;SDS011;5525;42.648;23.368;2024-01-15T02:25:22;24.42;;;11.00;;
10945;SDS011;5525;42.648;23.368;2024-01-15T02:27:49;21.33;;;10.45;;
10945;SDS011;5525;42.648;23.368;2024-01-15T02:30:16;23.15;;;12.35;;
10945;SDS011;5525;42.648;23.368;2024-01-15T02:32:43;18.50;;;9.75;;
10945;SDS011;5525;42.648;23.368;2024-01-15T02:35:10;22.35;;;11.05;;
10945;SDS011;5525;42.648;23.368;2024-01-15T02:37:37;19.70;;;11.30;;
10945;SDS011;5525;42.648;23.368;2024-01-15T02:40:04;23.65;;;11.77;;
10945;SDS011;5525;42.648;23.368;2024-01-15T02:42:33;24.20;;;10.60;;
10945;SDS011;5525;42.648;23.368;2024-01-15T02:44:59;21.77;;;11.63;;
10945;SDS011;5525;42.648;23.368;2024-01-15T02:47:26;21.40;;;11.27;;
10945;SDS011;5525;42.648;23.368;2024-01-15T02:49:53;21.10;;;11.10;;
10945;SDS011;5525;42.648;23.368;2024-01-15T02:52:20;24.25;;;11.50;;
10945;SDS011;5525;42.648;23.368;2024-01-15T02:54:47;20.02;;;11.05;;
10945;SDS011;5525;42.648;23.368;2024-01-15T02:57:13;25.98;;;13.07;;
10945;SDS011;5525;42.648;23.368;2024-01-15T02:59:43;27.13;;;14.93;;
10945;SDS011;5525;42.648;23.368;2024-01-15T03:02:10;35.67;;;15.88;;
10945;SDS011;5525;42.648;23.368;2024-01-15T03:04:37;20.30;;;11.23;;
10945;SDS011;5525;42.648;23.368;2024-01-15T03:07:03;32.08;;;17.40;;
10945;SDS011;5525;42.648;23.368;2024-01-15T03:09:30;25.20;;;12.43;;
10945;SDS011;5525;42.648;23.368;2024-01-15T03:11:57;24.40;;;11.38;;
10945;SDS011;5525;42.648;23.368;2024-01-15T03:14:24;25.80;;;13.70;;
10945;SDS011;5525;42.648;23.368;2024-01-15T03:16:52;26.30;;;13.75;;
10945;SDS011;5525;42.648;23.368;2024-01-15T03:19:19;26.20;;;13.10;;
10945;SDS011;5525;42.648;23.368;2024-01-15T03:21:46;23.83;;;12.80;;
10945;SDS011;5525;42.648;23.368;2024-01-15T03:24:13;29.00;;;13.50;;
10945;SDS011;5525;42.648;23.368;2024-01-15T03:26:40;27.73;;;14.55;;
10945;SDS011;5525;42.648;23.368;2024-01-15T03:29:07;30.45;;;15.65;;
10945;SDS011;5525;42.648;23.368;2024-01-15T03:31:34;24.08;;;12.80;;
10945;SDS011;5525;42.648;23.368;2024-01-15T03:34:02;25.20;;;10.98;;
10945;SDS011;5525;42.648;23.368;2024-01-15T03:36:29;27.75;;;12.88;;
10945;SDS011;5525;42.648;23.368;2024-01-15T03:38:56;31.23;;;15.13;;
10945;SDS011;5525;42.648;23.368;2024-01-15T03:41:22;29.15;;;14.05;;
10945;SDS011;5525;42.648;23.368;2024-01-15T03:43:49;30.23;;;15.48;;
10945;SDS011;5525;42.648;23.368;2024-01-15T03:46:16;26.90;;;13.18;;
10945;SDS011;5525;42.648;23.368;2024-01-15T03:48:42;30.88;;;13.82;;
10945;SDS011;5525;42.648;23.368;2024-01-15T03:51:11;28.02;;;14.30;;
10945;SDS011;5525;42.648;23.368;2024-01-15T03:53:37;33.20;;;14.63;;
10945;SDS011;5525;42.648;23.368;2024-01-15T03:56:04;30.83;;;13.93;;
10945;SDS011;5525;42.648;23.368;2024-01-15T03:58:31;23.77;;;12.20;;
10945;SDS011;5525;42.648;23.368;2024-01-15T04:00:58;28.33;;;13.65;;
10945;SDS011;5525;42.648;23.368;2024-01-15T04:03:25;28.25;;;11.90;;
10945;SDS011;5525;42.648;23.368;2024-01-15T04:05:52;30.92;;;13.43;;
10945;SDS011;5525;42.648;23.368;2024-01-15T04:08:20;25.50;;;12.82;;
10945;SDS011;5525;42.648;23.368;2024-01-15T04:10:47;24.15;;;12.93;;
10945;SDS011;5525;42.648;23.368;2024-01-15T04:13:14;28.55;;;13.52;;
10945;SDS011;5525;42.648;23.368;2024-01-15T04:15:40;25.13;;;13.45;;
10945;SDS011;5525;42.648;23.368;2024-01-15T04:18:07;27.65;;;14.52;;
10945;SDS011;5525;42.648;23.368;2024-01-15T04:20:34;31.08;;;14.35;;
10945;SDS011;5525;42.648;23.368;2024-01-15T04:23:01;25.13;;;12.02;;
10945;SDS011;5525;42.648;23.368;2024-01-15T04:25:29;29.92;;;14.95;;
10945;SDS011;5525;42.648;23.368;2024-01-15T04:27:56;26.52;;;13.75;;
10945;SDS011;5525;42.648;23.368;2024-01-15T04:30:22;25.25;;;12.73;;
10945;SDS011;5525;42.648;23.368;2024-01-15T04:32:49;29.13;;;14.70;;
10945;SDS011;5525;42.648;23.368;2024-01-15T04:35:16;28.70;;;11.93;;
10945;SDS011;5525;42.648;23.368;2024-01-15T04:37:42;25.35;;;12.63;;
10945;SDS011;5525;42.648;23.368;2024-01-15T04:40:10;30.00;;;15.00;;
10945;SDS011;5525;42.648;23.368;2024-01-15T04:42:39;28.08;;;12.30;;
10945;SDS011;5525;42.648;23.368;2024-01-15T04:45:06;24.70;;;11.13;;
10945;SDS011;5525;42.648;23.368;2024-01-15T04:47:33;25.63;;;14.20;;
10945;SDS011;5525;42.648;23.368;2024-01-15T04:50:02;29.90;;;14.15;;
10945;SDS011;5525;42.648;23.368;2024-01-15T04:52:29;26.42;;;14.43;;
10945;SDS011;5525;42.648;23.368;2024-01-15T04:54:56;24.65;;;13.48;;
10945;SDS011;5525;42.648;23.368;2024-01-15T04:57:22;23.13;;;13.13;;
10945;SDS011;5525;42.648;23.368;2024-01-15T04:59:50;28.23;;;13.98;;
10945;SDS011;5525;42.648;23.368;2024-01-15T05:02:17;28.20;;;13.32;;
10945;SDS011;5525;42.648;23.368;2024-01-15T05:04:44;28.10;;;13.65;;
10945;SDS011;5525;42.648;23.368;2024-01-15T05:07:11;22.92;;;11.90;;
10945;SDS011;5525;42.648;23.368;2024-01-15T05:09:37;29.63;;;15.90;;
10945;SDS011;5525;42.648;23.368;2024-01-15T05:12:04;28.70;;;14.55;;
10945;SDS011;5525;42.648;23.368;2024-01-15T05:14:31;25.05;;;13.45;;
10945;SDS011;5525;42.648;23.368;2024-01-15T05:16:59;27.20;;;14.20;;
10945;SDS011;5525;42.648;23.368;2024-01-15T05:19:26;27.25;;;13.43;;
10945;SDS011;5525;42.648;23.368;2024-01-15T05:21:53;31.10;;;13.90;;
10945;SDS011;5525;42.648;23.368;2024-01-15T05:24:19;25.10;;;13.48;;
10945;SDS011;5525;42.648;23.368;2024-01-15T05:26:46;26.92;;;13.50;;
10945;SDS011;5525;42.648;23.368;2024-01-15T05:29:13;28.50;;;14.80;;
10945;SDS011;5525;42.648;23.368;2024-01-15T05:31:40;27.63;;;14.23;;
10945;SDS011;5525;42.648;23.368;2024-01-15T05:34:08;25.88;;;14.10;;
10945;SDS011;5525;42.648;23.368;2024-01-15T05:36:35;29.27;;;11.77;;
10945;SDS011;5525;42.648;23.368;2024-01-15T05:39:01;36.78;;;17.35;;
10945;SDS011;5525;42.648;23.368;2024-01-15T05:41:28;37.35;;;16.08;;
10945;SDS011;5525;42.648;23.368;2024-01-15T05:43:55;35.20;;;17.55;;
10945;SDS011;5525;42.648;23.368;2024-01-15T05:46:22;30.25;;;14.60;;
10945;SDS011;5525;42.648;23.368;2024-01-15T05:48:48;29.88;;;14.10;;
10945;SDS011;5525;42.648;23.368;2024-01-15T05:51:17;34.83;;;14.68;;
10945;SDS011;5525;42.648;23.368;2024-01-15T05:53:47;33.08;;;16.25;;
10945;SDS011;5525;42.648;23.368;2024-01-15T05:56:13;27.48;;;14.00;;
10945;SDS011;5525;42.648;23.368;2024-01-15T05:58:41;34.38;;;16.77;;
10945;SDS011;5525;42.648;23.368;2024-01-15T06:01:07;36.90;;;17.23;;
10945;SDS011;5525;42.648;23.368;2024-01-15T06:03:34;44.30;;;21.23;;
10945;SDS011;5525;42.648;23.368;2024-01-15T06:06:01;32.70;;;16.90;;
10945;SDS011;5525;42.648;23.368;2024-01-15T06:08:30;30.35;;;15.27;;
10945;SDS011;5525;42.648;23.368;2024-01-15T06:10:56;24.70;;;12.60;;
10945;SDS011;5525;42.648;23.368;2024-01-15T06:13:23;36.03;;;15.50;;
10945;SDS011;5525;42.648;23.368;2024-01-15T06:15:50;31.77;;;15.10;;
10945;SDS011;5525;42.648;23.368;2024-01-15T06:18:17;36.40;;;18.55;;
10945;SDS011;5525;42.648;23.368;2024-01-15T06:20:43;37.28;;;19.13;;
10945;SDS011;5525;42.648;23.368;2024-01-15T06:23:10;35.28;;;20.25;;
10945;SDS011;5525;42.648;23.368;2024-01-15T06:25:38;40.25;;;20.67;;
10945;SDS011;5525;42.648;23.368;2024-01-15T06:28:05;38.22;;;20.10;;
10945;SDS011;5525;42.648;23.368;2024-01-15T06:30:32;47.10;;;20.52;;
10945;SDS011;5525;42.648;23.368;2024-01-15T06:32:59;45.85;;;20.77;;
10945;SDS011;5525;42.648;23.368;2024-01-15T06:35:25;40.28;;;20.05;;
10945;SDS011;5525;42.648;23.368;2024-01-15T06:37:52;37.25;;;18.85;;
10945;SDS011;5525;42.648;23.368;2024-01-15T06:40:19;33.97;;;19.55;;
10945;SDS011;5525;42.648;23.368;2024-01-15T06:42:47;66.07;;;33.55;;
10945;SDS011;5525;42.648;23.368;2024-01-15T06:45:14;41.70;;;23.13;;
10945;SDS011;5525;42.648;23.368;2024-01-15T06:47:40;46.30;;;26.55;;
10945;SDS011;5525;42.648;23.368;2024-01-15T06:50:07;44.80;;;24.98;;
10945;SDS011;5525;42.648;23.368;2024-01-15T06:52:34;42.17;;;21.92;;
10945;SDS011;5525;42.648;23.368;2024-01-15T06:55:01;53.38;;;26.67;;
10945;SDS011;5525;42.648;23.368;2024-01-15T06:57:28;50.03;;;22.08;;
10945;SDS011;5525;42.648;23.368;2024-01-15T06:59:57;35.58;;;20.33;;
10945;SDS011;5525;42.648;23.368;2024-01-15T07:02:23;39.90;;;21.48;;
10945;SDS011;5525;42.648;23.368;2024-01-15T07:04:51;43.67;;;22.45;;
10945;SDS011;5525;42.648;23.368;2024-01-15T07:07:18;41.55;;;23.17;;
10945;SDS011;5525;42.648;23.368;2024-01-15T07:09:45;42.33;;;22.65;;
10945;SDS011;5525;42.648;23.368;2024-01-15T07:12:12;41.80;;;23.70;;
10945;SDS011;5525;42.648;23.368;2024-01-15T07:14:39;48.35;;;25.83;;
10945;SDS011;5525;42.648;23.368;2024-01-15T07:17:07;44.13;;;26.48;;
10945;SDS011;5525;42.648;23.368;2024-01-15T07:19:33;45.17;;;25.80;;
10945;SDS011;5525;42.648;23.368;2024-01-15T07:22:00;55.15;;;28.50;;
10945;SDS011;5525;42.648;23.368;2024-01-15T07:24:27;48.38;;;25.95;;
10945;SDS011;5525;42.648;23.368;2024-01-15T07:26:54;45.17;;;24.58;;
10945;SDS011;5525;42.648;23.368;2024-01-15T07:29:21;53.50;;;26.42;;
10945;SDS011;5525;42.648;23.368;2024-01-15T07:31:48;51.08;;;26.77;;
10945;SDS011;5525;42.648;23.368;2024-01-15T07:34:21;48.42;;;25.98;;
10945;SDS011;5525;42.648;23.368;2024-01-15T07:36:48;46.03;;;26.20;;
10945;SDS011;5525;42.648;23.368;2024-01-15T07:39:16;49.17;;;27.08;;
10945;SDS011;5525;42.648;23.368;2024-01-15T07:41:43;49.72;;;27.52;;
10945;SDS011;5525;42.648;23.368;2024-01-15T07:44:10;56.42;;;33.45;;
10945;SDS011;5525;42.648;23.368;2024-01-15T07:46:37;50.28;;;26.23;;
10945;SDS011;5525;42.648;23.368;2024-01-15T07:49:04;43.80;;;23.45;;
10945;SDS011;5525;42.648;23.368;2024-01-15T07:51:33;47.15;;;26.58;;
10945;SDS011;5525;42.648;23.368;2024-01-15T07:53:59;47.13;;;23.75;;
10945;SDS011;5525;42.648;23.368;2024-01-15T07:56:26;40.58;;;22.52;;
10945;SDS011;5525;42.648;23.368;2024-01-15T07:58:53;41.90;;;23.83;;
10945;SDS011;5525;42.648;23.368;2024-01-15T08:01:20;43.33;;;22.35;;
10945;SDS011;5525;42.648;23.368;2024-01-15T08:03:47;44.17;;;23.52;;
10945;SDS011;5525;42.648;23.368;2024-01-15T08:06:14;37.33;;;21.38;;
10945;SDS011;5525;42.648;23.368;2024-01-15T08:08:43;29.70;;;16.63;;
10945;SDS011;5525;42.648;23.368;2024-01-15T08:11:10;33.58;;;18.05;;
10945;SDS011;5525;42.648;23.368;2024-01-15T08:13:37;29.67;;;17.08;;
10945;SDS011;5525;42.648;23.368;2024-01-15T08:16:04;27.92;;;15.70;;
10945;SDS011;5525;42.648;23.368;2024-01-15T08:18:32;23.98;;;13.70;;
10945;SDS011;5525;42.648;23.368;2024-01-15T08:20:58;26.38;;;13.85;;
10945;SDS011;5525;42.648;23.368;2024-01-15T08:23:25;22.33;;;13.43;;
10945;SDS011;5525;42.648;23.368;2024-01-15T08:25:57;25.30;;;14.20;;
10945;SDS011;5525;42.648;23.368;2024-01-15T08:28:24;19.13;;;11.93;;
10945;SDS011;5525;42.648;23.368;2024-01-15T08:30:51;29.73;;;18.38;;
10945;SDS011;5525;42.648;23.368;2024-01-15T08:33:17;33.72;;;19.25;;
10945;SDS011;5525;42.648;23.368;2024-01-15T08:35:44;32.92;;;20.35;;
10945;SDS011;5525;42.648;23.368;2024-01-15T08:38:11;34.65;;;20.17;;
10945;SDS011;5525;42.648;23.368;2024-01-15T08:40:38;32.67;;;20.00;;
10945;SDS011;5525;42.648;23.368;2024-01-15T08:43:06;32.05;;;18.73;;
10945;SDS011;5525;42.648;23.368;2024-01-15T08:45:33;37.70;;;20.90;;
10945;SDS011;5525;42.648;23.368;2024-01-15T08:48:02;47.30;;;25.67;;
10945;SDS011;5525;42.648;23.368;2024-01-15T08:50:29;40.00;;;21.35;;
10945;SDS011;5525;42.648;23.368;2024-01-15T08:52:57;38.03;;;20.48;;
10945;SDS011;5525;42.648;23.368;2024-01-15T08:55:24;37.92;;;21.25;;
10945;SDS011;5525;42.648;23.368;2024-01-15T08:57:51;38.17;;;21.90;;
10945;SDS011;5525;42.648;23.368;2024-01-15T09:00:19;33.95;;;19.20;;
10945;SDS011;5525;42.648;23.368;2024-01-15T09:02:46;28.52;;;15.93;;
10945;SDS011;5525;42.648;23.368;2024-01-15T09:05:12;28.23;;;16.23;;
10945;SDS011;5525;42.648;23.368;2024-01-15T09:07:39;28.65;;;15.98;;
10945;SDS011;5525;42.648;23.368;2024-01-15T09:10:06;28.73;;;17.20;;
10945;SDS011;5525;42.648;23.368;2024-01-15T09:12:33;28.63;;;15.90;;
10945;SDS011;5525;42.648;23.368;2024-01-15T09:15:00;28.33;;;16.80;;
10945;SDS011;5525;42.648;23.368;2024-01-15T09:17:31;28.13;;;16.10;;
10945;SDS011;5525;42.648;23.368;2024-01-15T09:19:58;28.52;;;15.52;;
10945;SDS011;5525;42.648;23.368;2024-01-15T09:22:25;26.25;;;16.52;;
10945;SDS011;5525;42.648;23.368;2024-01-15T09:24:52;28.58;;;16.58;;
10945;SDS011;5525;42.648;23.368;2024-01-15T09:27:19;27.95;;;16.40;;
10945;SDS011;5525;42.648;23.368;2024-01-15T09:29:45;29.92;;;16.10;;
10945;SDS011;5525;42.648;23.368;2024-01-15T09:32:12;28.00;;;16.95;;
10945;SDS011;5525;42.648;23.368;2024-01-15T09:34:42;42.90;;;24.40;;
10945;SDS011;5525;42.648;23.368;2024-01-15T09:37:09;61.40;;;36.20;;
10945;SDS011;5525;42.648;23.368;2024-01-15T09:39:36;67.30;;;36.97;;
10945;SDS011;5525;42.648;23.368;2024-01-15T09:42:03;64.00;;;37.05;;
10945;SDS011;5525;42.648;23.368;2024-01-15T09:44:31;59.72;;;34.90;;
10945;SDS011;5525;42.648;23.368;2024-01-15T09:46:58;55.72;;;32.92;;
10945;SDS011;5525;42.648;23.368;2024-01-15T09:49:25;56.30;;;32.60;;
10945;SDS011;5525;42.648;23.368;2024-01-15T09:51:53;54.67;;;31.70;;
10945;SDS011;5525;42.648;23.368;2024-01-15T09:54:21;47.75;;;32.30;;
10945;SDS011;5525;42.648;23.368;2024-01-15T09:56:47;52.67;;;31.63;;
10945;SDS011;5525;42.648;23.368;2024-01-15T09:59:15;46.15;;;25.83;;
10945;SDS011;5525;42.648;23.368;2024-01-15T10:01:43;43.13;;;25.02;;
10945;SDS011;5525;42.648;23.368;2024-01-15T10:04:10;42.13;;;23.48;;
10945;SDS011;5525;42.648;23.368;2024-01-15T10:06:38;48.55;;;23.27;;
10945;SDS011;5525;42.648;23.368;2024-01-15T10:09:09;36.25;;;19.40;;
10945;SDS011;5525;42.648;23.368;2024-01-15T10:11:36;35.35;;;20.67;;
10945;SDS011;5525;42.648;23.368;2024-01-15T10:14:04;34.13;;;17.83;;
10945;SDS011;5525;42.648;23.368;2024-01-15T10:16:31;30.42;;;17.15;;
10945;SDS011;5525;42.648;23.368;2024-01-15T10:18:58;27.42;;;16.50;;
10945;SDS011;5525;42.648;23.368;2024-01-15T10:21:24;32.47;;;18.38;;
10945;SDS011;5525;42.648;23.368;2024-01-15T10:23:52;34.17;;;18.95;;
10945;SDS011;5525;42.648;23.368;2024-01-15T10:26:25;31.75;;;18.67;;
10945;SDS011;5525;42.648;23.368;2024-01-15T10:28:52;33.42;;;18.60;;
10945;SDS011;5525;42.648;23.368;2024-01-15T10:31:19;30.25;;;17.90;;
10945;SDS011;5525;42.648;23.368;2024-01-15T10:33:47;29.45;;;17.83;;
10945;SDS011;5525;42.648;23.368;2024-01-15T10:36:13;33.30;;;16.92;;
10945;SDS011;5525;42.648;23.368;2024-01-15T10:38:42;35.53;;;18.15;;
10945;SDS011;5525;42.648;23.368;2024-01-15T10:41:09;31.63;;;17.58;;
10945;SDS011;5525;42.648;23.368;2024-01-15T10:43:38;31.27;;;17.40;;
10945;SDS011;5525;42.648;23.368;2024-01-15T10:46:06;33.30;;;17.65;;
10945;SDS011;5525;42.648;23.368;2024-01-15T10:48:33;32.28;;;17.17;;
10945;SDS011;5525;42.648;23.368;2024-01-15T10:51:01;31.25;;;16.85;;
10945;SDS011;5525;42.648;23.368;2024-01-15T10:53:33;29.98;;;16.50;;
10945;SDS011;5525;42.648;23.368;2024-01-15T10:56:02;24.90;;;15.10;;
10945;SDS011;5525;42.648;23.368;2024-01-15T10:58:31;26.17;;;14.80;;
10945;SDS011;5525;42.648;23.368;2024-01-15T11:01:01;24.98;;;14.38;;
10945;SDS011;5525;42.648;23.368;2024-01-15T11:03:29;35.90;;;15.65;;
10945;SDS011;5525;42.648;23.368;2024-01-15T11:05:57;24.17;;;14.20;;
10945;SDS011;5525;42.648;23.368;2024-01-15T11:08:24;38.90;;;16.15;;
10945;SDS011;5525;42.648;23.368;2024-01-15T11:10:51;28.88;;;16.02;;
10945;SDS011;5525;42.648;23.368;2024-01-15T11:13:20;24.38;;;15.02;;
10945;SDS011;5525;42.648;23.368;2024-01-15T11:15:54;29.83;;;15.43;;
10945;SDS011;5525;42.648;23.368;2024-01-15T11:18:23;31.58;;;17.15;;
10945;SDS011;5525;42.648;23.368;2024-01-15T11:23:49;31.67;;;18.33;;
10945;SDS011;5525;42.648;23.368;2024-01-15T11:26:30;33.97;;;19.55;;
10945;SDS011;5525;42.648;23.368;2024-01-15T11:28:58;37.63;;;20.45;;
10945;SDS011;5525;42.648;23.368;2024-01-15T11:31:27;36.03;;;21.00;;
10945;SDS011;5525;42.648;23.368;2024-01-15T11:33:56;37.00;;;20.58;;
10945;SDS011;5525;42.648;23.368;2024-01-15T11:39:41;35.85;;;20.45;;
10945;SDS011;5525;42.648;23.368;2024-01-15T11:42:09;35.85;;;20.80;;
10945;SDS011;5525;42.648;23.368;2024-01-15T11:44:37;41.20;;;21.50;;
10945;SDS011;5525;42.648;23.368;2024-01-15T11:47:04;36.60;;;20.25;;
10945;SDS011;5525;42.648;23.368;2024-01-15T11:49:38;35.30;;;21.08;;
10945;SDS011;5525;42.648;23.368;2024-01-15T11:52:25;31.75;;;19.30;;
10945;SDS011;5525;42.648;23.368;2024-01-15T11:54:55;35.25;;;20.60;;
10945;SDS011;5525;42.648;23.368;2024-01-15T11:57:29;31.15;;;20.33;;
10945;SDS011;5525;42.648;23.368;2024-01-15T12:00:03;30.50;;;18.95;;
10945;SDS011;5525;42.648;23.368;2024-01-15T12:02:30;36.15;;;20.75;;
10945;SDS011;5525;42.648;23.368;2024-01-15T12:04:58;35.90;;;20.15;;
10945;SDS011;5525;42.648;23.368;2024-01-15T12:07:25;35.28;;;20.40;;
10945;SDS011;5525;42.648;23.368;2024-01-15T12:09:52;40.30;;;20.50;;
10945;SDS011;5525;42.648;23.368;2024-01-15T12:15:06;34.22;;;20.55;;
10945;SDS011;5525;42.648;23.368;2024-01-15T12:17:34;34.88;;;20.40;;
10945;SDS011;5525;42.648;23.368;2024-01-15T12:20:03;37.20;;;20.73;;
10945;SDS011;5525;42.648;23.368;2024-01-15T12:22:29;40.20;;;20.80;;
10945;SDS011;5525;42.648;23.368;2024-01-15T12:24:56;35.17;;;22.15;;
10945;SDS011;5525;42.648;23.368;2024-01-15T12:27:24;33.88;;;19.27;;
10945;SDS011;5525;42.648;23.368;2024-01-15T12:29:52;34.35;;;19.40;;
10945;SDS011;5525;42.648;23.368;2024-01-15T12:32:19;31.92;;;19.73;;
10945;SDS011;5525;42.648;23.368;2024-01-15T12:34:46;37.83;;;20.27;;
10945;SDS011;5525;42.648;23.368;2024-01-15T12:37:17;34.95;;;18.92;;
10945;SDS011;5525;42.648;23.368;2024-01-15T12:39:44;33.25;;;18.60;;
10945;SDS011;5525;42.648;23.368;2024-01-15T12:42:11;27.80;;;17.90;;
10945;SDS011;5525;42.648;23.368;2024-01-15T12:44:38;30.63;;;18.50;;
10945;SDS011;5525;42.648;23.368;2024-01-15T12:47:06;35.92;;;19.45;;
10945;SDS011;5525;42.648;23.368;2024-01-15T12:49:32;28.98;;;19.15;;
10945;SDS011;5525;42.648;23.368;2024-01-15T12:51:59;27.65;;;17.98;;
10945;SDS011;5525;42.648;23.368;2024-01-15T12:54:27;32.45;;;17.92;;
10945;SDS011;5525;42.648;23.368;2024-01-15T12:56:54;28.10;;;18.27;;
10945;SDS011;5525;42.648;23.368;2024-01-15T12:59:21;33.30;;;18.15;;
10945;SDS011;5525;42.648;23.368;2024-01-15T13:01:48;37.78;;;18.50;;
10945;SDS011;5525;42.648;23.368;2024-01-15T13:04:20;31.92;;;18.60;;
10945;SDS011;5525;42.648;23.368;2024-01-15T13:06:48;31.45;;;19.23;;
10945;SDS011;5525;42.648;23.368;2024-01-15T13:09:16;29.83;;;17.88;;
10945;SDS011;5525;42.648;23.368;2024-01-15T13:11:45;32.30;;;17.38;;
10945;SDS011;5525;42.648;23.368;2024-01-15T13:14:12;27.10;;;16.92;;
10945;SDS011;5525;42.648;23.368;2024-01-15T13:16:39;30.70;;;17.20;;
10945;SDS011;5525;42.648;23.368;2024-01-15T13:19:06;33.65;;;17.77;;
10945;SDS011;5525;42.648;23.368;2024-01-15T13:21:34;26.40;;;17.05;;
10945;SDS011;5525;42.648;23.368;2024-01-15T13:24:01;33.75;;;17.95;;
10945;SDS011;5525;42.648;23.368;2024-01-15T13:26:30;29.17;;;16.92;;
10945;SDS011;5525;42.648;23.368;2024-01-15T13:28:59;33.95;;;17.73;;
10945;SDS011;5525;42.648;23.368;2024-01-15T13:31:26;29.95;;;17.85;;
10945;SDS011;5525;42.648;23.368;2024-01-15T13:33:53;31.10;;;17.92;;
10945;SDS011;5525;42.648;23.368;2024-01-15T13:36:20;29.23;;;18.08;;
10945;SDS011;5525;42.648;23.368;2024-01-15T13:38:46;31.13;;;17.35;;
10945;SDS011;5525;42.648;23.368;2024-01-15T13:41:13;31.52;;;17.67;;
10945;SDS011;5525;42.648;23.368;2024-01-15T13:43:41;28.70;;;18.10;;
10945;SDS011;5525;42.648;23.368;2024-01-15T13:46:09;30.50;;;19.50;;
10945;SDS011;5525;42.648;23.368;2024-01-15T13:48:36;36.85;;;19.60;;
10945;SDS011;5525;42.648;23.368;2024-01-15T13:51:02;30.65;;;17.67;;
10945;SDS011;5525;42.648;23.368;2024-01-15T13:53:29;37.45;;;19.33;;
10945;SDS011;5525;42.648;23.368;2024-01-15T13:55:56;33.60;;;19.75;;
10945;SDS011;5525;42.648;23.368;2024-01-15T13:58:23;41.67;;;20.10;;
10945;SDS011;5525;42.648;23.368;2024-01-15T14:00:50;34.83;;;19.20;;
10945;SDS011;5525;42.648;23.368;2024-01-15T14:03:19;29.17;;;18.70;;
10945;SDS011;5525;42.648;23.368;2024-01-15T14:05:45;30.60;;;18.80;;
10945;SDS011;5525;42.648;23.368;2024-01-15T14:08:12;28.85;;;18.65;;
10945;SDS011;5525;42.648;23.368;2024-01-15T14:10:39;31.42;;;17.73;;
10945;SDS011;5525;42.648;23.368;2024-01-15T14:13:06;34.85;;;18.17;;
10945;SDS011;5525;42.648;23.368;2024-01-15T14:15:33;30.10;;;17.75;;
10945;SDS011;5525;42.648;23.368;2024-01-15T14:18:00;37.20;;;17.98;;
10945;SDS011;5525;42.648;23.368;2024-01-15T14:20:28;35.22;;;18.17;;
10945;SDS011;5525;42.648;23.368;2024-01-15T14:22:56;33.10;;;19.45;;
10945;SDS011;5525;42.648;23.368;2024-01-15T14:25:22;33.13;;;19.60;;
10945;SDS011;5525;42.648;23.368;2024-01-15T14:27:50;26.40;;;17.73;;
10945;SDS011;5525;42.648;23.368;2024-01-15T14:30:16;31.08;;;19.13;;
10945;SDS011;5525;42.648;23.368;2024-01-15T14:32:43;33.72;;;18.80;;